sensor_id;sensor_type;location;lat;lon;timestamp;P1;durP1;ratioP1;P2;durP2;ratioP2
79074;SDS011;68476;42.710;23.388;2024-03-02T00:02:34;32.10;;;16.55;;
79074;SDS011;68476;42.710;23.388;2024-03-02T00:05:05;27.00;;;15.30;;
79074;SDS011;68476;42.710;23.388;2024-03-02T00:07:31;29.95;;;16.38;;
79074;SDS011;68476;42.710;23.388;2024-03-02T00:09:57;28.80;;;14.70;;
79074;SDS011;68476;42.710;23.388;2024-03-02T00:12:23;29.25;;;15.77;;
79074;SDS011;68476;42.710;23.388;2024-03-02T00:14:48;35.28;;;16.45;;
79074;SDS011;68476;42.710;23.388;2024-03-02T00:17:17;27.75;;;15.35;;
79074;SDS011;68476;42.710;23.388;2024-03-02T00:19:51;27.83;;;15.18;;
79074;SDS011;68476;42.710;23.388;2024-03-02T00:22:16;30.52;;;16.15;;
79074;SDS011;68476;42.710;23.388;2024-03-02T00:24:42;28.50;;;15.85;;
79074;SDS011;68476;42.710;23.388;2024-03-02T00:27:08;27.52;;;14.98;;
79074;SDS011;68476;42.710;23.388;2024-03-02T00:29:37;33.00;;;15.93;;
79074;SDS011;68476;42.710;23.388;2024-03-02T00:32:07;30.60;;;15.48;;
79074;SDS011;68476;42.710;23.388;2024-03-02T00:34:38;31.15;;;16.67;;
79074;SDS011;68476;42.710;23.388;2024-03-02T00:37:04;31.92;;;17.95;;
79074;SDS011;68476;42.710;23.388;2024-03-02T00:39:30;31.92;;;18.70;;
79074;SDS011;68476;42.710;23.388;2024-03-02T00:41:55;31.70;;;18.10;;
79074;SDS011;68476;42.710;23.388;2024-03-02T00:44:21;32.67;;;15.80;;
79074;SDS011;68476;42.710;23.388;2024-03-02T00:46:51;31.88;;;16.98;;
79074;SDS011;68476;42.710;23.388;2024-03-02T00:49:24;32.40;;;17.25;;
79074;SDS011;68476;42.710;23.388;2024-03-02T00:51:51;30.17;;;17.13;;
79074;SDS011;68476;42.710;23.388;2024-03-02T00:54:22;31.08;;;16.42;;
79074;SDS011;68476;42.710;23.388;2024-03-02T00:56:49;36.95;;;17.30;;
79074;SDS011;68476;42.710;23.388;2024-03-02T00:59:15;31.80;;;16.08;;
79074;SDS011;68476;42.710;23.388;2024-03-02T01:01:41;28.05;;;14.98;;
79074;SDS011;68476;42.710;23.388;2024-03-02T01:04:08;31.60;;;16.27;;
79074;SDS011;68476;42.710;23.388;2024-03-02T01:06:34;26.52;;;15.02;;
79074;SDS011;68476;42.710;23.388;2024-03-02T01:09:03;29.75;;;16.13;;
79074;SDS011;68476;42.710;23.388;2024-03-02T01:11:28;26.45;;;13.80;;
79074;SDS011;68476;42.710;23.388;2024-03-02T01:13:55;28.02;;;14.63;;
79074;SDS011;68476;42.710;23.388;2024-03-02T01:16:20;27.58;;;14.27;;
79074;SDS011;68476;42.710;23.388;2024-03-02T01:18:46;24.52;;;13.73;;
79074;SDS011;68476;42.710;23.388;2024-03-02T01:21:11;26.30;;;14.00;;
79074;SDS011;68476;42.710;23.388;2024-03-02T01:23:37;27.35;;;14.43;;
79074;SDS011;68476;42.710;23.388;2024-03-02T01:26:03;26.70;;;15.05;;
79074;SDS011;68476;42.710;23.388;2024-03-02T01:28:29;25.83;;;14.23;;
79074;SDS011;68476;42.710;23.388;2024-03-02T01:30:54;25.35;;;13.88;;
79074;SDS011;68476;42.710;23.388;2024-03-02T01:33:20;26.77;;;13.55;;
79074;SDS011;68476;42.710;23.388;2024-03-02T01:35:46;28.17;;;14.20;;
79074;SDS011;68476;42.710;23.388;2024-03-02T01:38:12;25.52;;;14.63;;
79074;SDS011;68476;42.710;23.388;2024-03-02T01:40:37;26.67;;;13.38;;
79074;SDS011;68476;42.710;23.388;2024-03-02T01:43:03;30.17;;;16.58;;
79074;SDS011;68476;42.710;23.388;2024-03-02T01:45:30;28.08;;;15.38;;
79074;SDS011;68476;42.710;23.388;2024-03-02T01:47:56;30.13;;;16.67;;
79074;SDS011;68476;42.710;23.388;2024-03-02T01:50:28;29.38;;;16.05;;
79074;SDS011;68476;42.710;23.388;2024-03-02T01:52:55;25.92;;;13.93;;
79074;SDS011;68476;42.710;23.388;2024-03-02T01:55:21;28.48;;;15.63;;
79074;SDS011;68476;42.710;23.388;2024-03-02T01:57:47;27.55;;;15.68;;
79074;SDS011;68476;42.710;23.388;2024-03-02T02:00:14;31.67;;;15.10;;
79074;SDS011;68476;42.710;23.388;2024-03-02T02:02:40;30.38;;;15.77;;
79074;SDS011;68476;42.710;23.388;2024-03-02T02:05:06;28.35;;;15.95;;
79074;SDS011;68476;42.710;23.388;2024-03-02T02:07:32;31.08;;;15.65;;
79074;SDS011;68476;42.710;23.388;2024-03-02T02:09:58;29.20;;;15.75;;
79074;SDS011;68476;42.710;23.388;2024-03-02T02:12:23;28.48;;;15.65;;
79074;SDS011;68476;42.710;23.388;2024-03-02T02:14:49;30.58;;;16.67;;
79074;SDS011;68476;42.710;23.388;2024-03-02T02:17:17;29.70;;;16.30;;
79074;SDS011;68476;42.710;23.388;2024-03-02T02:19:43;29.35;;;16.25;;
79074;SDS011;68476;42.710;23.388;2024-03-02T02:22:12;31.73;;;15.95;;
79074;SDS011;68476;42.710;23.388;2024-03-02T02:24:40;33.85;;;16.80;;
79074;SDS011;68476;42.710;23.388;2024-03-02T02:27:07;31.40;;;15.98;;
79074;SDS011;68476;42.710;23.388;2024-03-02T02:29:35;31.70;;;16.67;;
79074;SDS011;68476;42.710;23.388;2024-03-02T02:32:01;29.88;;;15.98;;
79074;SDS011;68476;42.710;23.388;2024-03-02T02:34:27;30.27;;;16.33;;
79074;SDS011;68476;42.710;23.388;2024-03-02T02:36:53;32.78;;;16.30;;
79074;SDS011;68476;42.710;23.388;2024-03-02T02:39:19;29.33;;;16.35;;
79074;SDS011;68476;42.710;23.388;2024-03-02T02:41:46;30.15;;;15.48;;
79074;SDS011;68476;42.710;23.388;2024-03-02T02:44:12;29.65;;;15.40;;
79074;SDS011;68476;42.710;23.388;2024-03-02T02:46:39;36.05;;;17.02;;
79074;SDS011;68476;42.710;23.388;2024-03-02T02:49:05;29.52;;;15.40;;
79074;SDS011;68476;42.710;23.388;2024-03-02T02:51:31;31.48;;;15.93;;
79074;SDS011;68476;42.710;23.388;2024-03-02T02:53:56;30.95;;;15.75;;
79074;SDS011;68476;42.710;23.388;2024-03-02T02:56:22;31.05;;;15.98;;
79074;SDS011;68476;42.710;23.388;2024-03-02T02:58:47;31.13;;;16.08;;
79074;SDS011;68476;42.710;23.388;2024-03-02T03:01:13;29.20;;;15.77;;
79074;SDS011;68476;42.710;23.388;2024-03-02T03:03:40;30.63;;;17.45;;
79074;SDS011;68476;42.710;23.388;2024-03-02T03:06:06;28.60;;;14.68;;
79074;SDS011;68476;42.710;23.388;2024-03-02T03:08:31;28.48;;;14.50;;
79074;SDS011;68476;42.710;23.388;2024-03-02T03:10:56;27.50;;;14.43;;
79074;SDS011;68476;42.710;23.388;2024-03-02T03:13:22;25.90;;;14.25;;
79074;SDS011;68476;42.710;23.388;2024-03-02T03:15:47;29.92;;;14.77;;
79074;SDS011;68476;42.710;23.388;2024-03-02T03:18:13;29.23;;;14.32;;
79074;SDS011;68476;42.710;23.388;2024-03-02T03:20:38;29.52;;;14.15;;
79074;SDS011;68476;42.710;23.388;2024-03-02T03:23:04;30.73;;;15.50;;
79074;SDS011;68476;42.710;23.388;2024-03-02T03:25:30;27.27;;;15.18;;
79074;SDS011;68476;42.710;23.388;2024-03-02T03:27:55;30.40;;;15.63;;
79074;SDS011;68476;42.710;23.388;2024-03-02T03:30:21;29.42;;;15.95;;
79074;SDS011;68476;42.710;23.388;2024-03-02T03:32:46;32.00;;;16.85;;
79074;SDS011;68476;42.710;23.388;2024-03-02T03:35:13;31.45;;;15.02;;
79074;SDS011;68476;42.710;23.388;2024-03-02T03:37:40;33.35;;;17.58;;
79074;SDS011;68476;42.710;23.388;2024-03-02T03:40:06;30.13;;;17.90;;
79074;SDS011;68476;42.710;23.388;2024-03-02T03:42:37;34.17;;;18.08;;
79074;SDS011;68476;42.710;23.388;2024-03-02T03:45:04;31.98;;;16.15;;
79074;SDS011;68476;42.710;23.388;2024-03-02T03:47:33;34.05;;;17.70;;
79074;SDS011;68476;42.710;23.388;2024-03-02T03:49:59;32.10;;;16.65;;
79074;SDS011;68476;42.710;23.388;2024-03-02T03:52:25;33.20;;;18.02;;
79074;SDS011;68476;42.710;23.388;2024-03-02T03:54:50;35.25;;;17.13;;
79074;SDS011;68476;42.710;23.388;2024-03-02T03:57:16;30.63;;;16.38;;
79074;SDS011;68476;42.710;23.388;2024-03-02T03:59:42;30.85;;;15.70;;
79074;SDS011;68476;42.710;23.388;2024-03-02T04:02:08;30.73;;;16.30;;
79074;SDS011;68476;42.710;23.388;2024-03-02T04:04:34;28.85;;;16.23;;
79074;SDS011;68476;42.710;23.388;2024-03-02T04:06:59;30.50;;;15.52;;
79074;SDS011;68476;42.710;23.388;2024-03-02T04:09:25;31.63;;;16.05;;
79074;SDS011;68476;42.710;23.388;2024-03-02T04:11:51;31.70;;;17.27;;
79074;SDS011;68476;42.710;23.388;2024-03-02T04:14:16;33.25;;;16.13;;
79074;SDS011;68476;42.710;23.388;2024-03-02T04:16:42;31.50;;;17.15;;
79074;SDS011;68476;42.710;23.388;2024-03-02T04:19:07;32.00;;;16.55;;
79074;SDS011;68476;42.710;23.388;2024-03-02T04:21:33;34.60;;;16.50;;
79074;SDS011;68476;42.710;23.388;2024-03-02T04:23:58;32.25;;;17.13;;
79074;SDS011;68476;42.710;23.388;2024-03-02T04:26:27;30.05;;;17.00;;
79074;SDS011;68476;42.710;23.388;2024-03-02T04:28:53;33.85;;;16.20;;
79074;SDS011;68476;42.710;23.388;2024-03-02T04:31:19;34.35;;;17.08;;
79074;SDS011;68476;42.710;23.388;2024-03-02T04:33:45;29.38;;;16.05;;
79074;SDS011;68476;42.710;23.388;2024-03-02T04:36:10;35.03;;;16.05;;
79074;SDS011;68476;42.710;23.388;2024-03-02T04:38:36;33.83;;;16.08;;
79074;SDS011;68476;42.710;23.388;2024-03-02T04:41:03;33.58;;;16.63;;
79074;SDS011;68476;42.710;23.388;2024-03-02T04:43:31;34.05;;;16.65;;
79074;SDS011;68476;42.710;23.388;2024-03-02T04:45:58;31.45;;;15.30;;
79074;SDS011;68476;42.710;23.388;2024-03-02T04:48:23;32.72;;;15.88;;
79074;SDS011;68476;42.710;23.388;2024-03-02T04:50:49;34.10;;;16.60;;
79074;SDS011;68476;42.710;23.388;2024-03-02T04:53:14;36.08;;;17.63;;
79074;SDS011;68476;42.710;23.388;2024-03-02T04:55:40;35.75;;;18.27;;
79074;SDS011;68476;42.710;23.388;2024-03-02T04:58:05;33.30;;;17.17;;
79074;SDS011;68476;42.710;23.388;2024-03-02T05:00:31;35.80;;;16.70;;
79074;SDS011;68476;42.710;23.388;2024-03-02T05:02:57;36.90;;;18.33;;
79074;SDS011;68476;42.710;23.388;2024-03-02T05:05:22;40.53;;;19.20;;
79074;SDS011;68476;42.710;23.388;2024-03-02T05:07:48;38.70;;;18.20;;
79074;SDS011;68476;42.710;23.388;2024-03-02T05:10:13;35.47;;;17.55;;
79074;SDS011;68476;42.710;23.388;2024-03-02T05:12:39;36.55;;;17.13;;
79074;SDS011;68476;42.710;23.388;2024-03-02T05:15:08;36.20;;;17.10;;
79074;SDS011;68476;42.710;23.388;2024-03-02T05:17:38;34.72;;;16.92;;
79074;SDS011;68476;42.710;23.388;2024-03-02T05:20:05;36.35;;;16.77;;
79074;SDS011;68476;42.710;23.388;2024-03-02T05:22:33;34.90;;;17.85;;
79074;SDS011;68476;42.710;23.388;2024-03-02T05:24:59;32.90;;;17.70;;
79074;SDS011;68476;42.710;23.388;2024-03-02T05:27:26;35.65;;;16.88;;
79074;SDS011;68476;42.710;23.388;2024-03-02T05:29:54;31.23;;;15.63;;
79074;SDS011;68476;42.710;23.388;2024-03-02T05:32:19;36.50;;;17.23;;
79074;SDS011;68476;42.710;23.388;2024-03-02T05:34:45;35.75;;;17.38;;
79074;SDS011;68476;42.710;23.388;2024-03-02T05:37:10;33.70;;;18.20;;
79074;SDS011;68476;42.710;23.388;2024-03-02T05:39:36;37.55;;;18.40;;
79074;SDS011;68476;42.710;23.388;2024-03-02T05:42:02;31.98;;;15.90;;
79074;SDS011;68476;42.710;23.388;2024-03-02T05:44:28;36.40;;;17.00;;
79074;SDS011;68476;42.710;23.388;2024-03-02T05:46:53;37.53;;;17.77;;
79074;SDS011;68476;42.710;23.388;2024-03-02T05:49:19;39.15;;;18.85;;
79074;SDS011;68476;42.710;23.388;2024-03-02T05:51:44;36.20;;;18.98;;
79074;SDS011;68476;42.710;23.388;2024-03-02T05:54:10;35.85;;;16.60;;
79074;SDS011;68476;42.710;23.388;2024-03-02T05:56:35;34.97;;;18.50;;
79074;SDS011;68476;42.710;23.388;2024-03-02T05:59:01;37.88;;;17.80;;
79074;SDS011;68476;42.710;23.388;2024-03-02T06:04:08;35.88;;;17.42;;
79074;SDS011;68476;42.710;23.388;2024-03-02T06:09:02;40.80;;;19.10;;
79074;SDS011;68476;42.710;23.388;2024-03-02T06:11:38;44.17;;;21.42;;
79074;SDS011;68476;42.710;23.388;2024-03-02T06:14:05;41.60;;;20.85;;
79074;SDS011;68476;42.710;23.388;2024-03-02T06:18:59;38.10;;;19.73;;
79074;SDS011;68476;42.710;23.388;2024-03-02T06:21:25;39.42;;;19.52;;
79074;SDS011;68476;42.710;23.388;2024-03-02T06:23:52;40.25;;;19.95;;
79074;SDS011;68476;42.710;23.388;2024-03-02T06:26:18;41.28;;;19.60;;
79074;SDS011;68476;42.710;23.388;2024-03-02T06:28:44;45.97;;;20.98;;
79074;SDS011;68476;42.710;23.388;2024-03-02T06:31:09;41.00;;;20.63;;
79074;SDS011;68476;42.710;23.388;2024-03-02T06:33:35;46.05;;;18.98;;
79074;SDS011;68476;42.710;23.388;2024-03-02T06:36:01;40.30;;;19.55;;
79074;SDS011;68476;42.710;23.388;2024-03-02T06:38:27;45.20;;;20.10;;
79074;SDS011;68476;42.710;23.388;2024-03-02T06:40:52;41.67;;;20.10;;
79074;SDS011;68476;42.710;23.388;2024-03-02T06:43:18;37.63;;;17.67;;
79074;SDS011;68476;42.710;23.388;2024-03-02T06:45:48;40.78;;;18.20;;
79074;SDS011;68476;42.710;23.388;2024-03-02T06:48:14;40.97;;;19.05;;
79074;SDS011;68476;42.710;23.388;2024-03-02T06:50:43;41.17;;;19.58;;
79074;SDS011;68476;42.710;23.388;2024-03-02T06:53:09;39.15;;;18.27;;
79074;SDS011;68476;42.710;23.388;2024-03-02T06:55:34;38.35;;;17.42;;
79074;SDS011;68476;42.710;23.388;2024-03-02T06:58:00;35.05;;;16.90;;
79074;SDS011;68476;42.710;23.388;2024-03-02T07:00:25;35.97;;;18.23;;
79074;SDS011;68476;42.710;23.388;2024-03-02T07:02:50;40.20;;;17.33;;
79074;SDS011;68476;42.710;23.388;2024-03-02T07:05:16;36.40;;;17.65;;
79074;SDS011;68476;42.710;23.388;2024-03-02T07:07:42;39.17;;;17.70;;
79074;SDS011;68476;42.710;23.388;2024-03-02T07:10:08;36.75;;;16.92;;
79074;SDS011;68476;42.710;23.388;2024-03-02T07:12:33;34.17;;;16.95;;
79074;SDS011;68476;42.710;23.388;2024-03-02T07:14:59;36.60;;;16.48;;
79074;SDS011;68476;42.710;23.388;2024-03-02T07:17:30;35.72;;;17.40;;
79074;SDS011;68476;42.710;23.388;2024-03-02T07:19:57;33.95;;;16.63;;
79074;SDS011;68476;42.710;23.388;2024-03-02T07:22:22;33.67;;;16.67;;
79074;SDS011;68476;42.710;23.388;2024-03-02T07:24:48;29.48;;;15.13;;
79074;SDS011;68476;42.710;23.388;2024-03-02T07:27:14;33.50;;;16.55;;
79074;SDS011;68476;42.710;23.388;2024-03-02T07:29:40;31.67;;;15.43;;
79074;SDS011;68476;42.710;23.388;2024-03-02T07:32:06;29.58;;;14.85;;
79074;SDS011;68476;42.710;23.388;2024-03-02T07:34:33;28.75;;;14.50;;
79074;SDS011;68476;42.710;23.388;2024-03-02T07:36:59;28.45;;;14.95;;
79074;SDS011;68476;42.710;23.388;2024-03-02T07:39:24;30.77;;;15.95;;
79074;SDS011;68476;42.710;23.388;2024-03-02T07:41:50;29.80;;;15.50;;
79074;SDS011;68476;42.710;23.388;2024-03-02T07:44:16;31.02;;;16.40;;
79074;SDS011;68476;42.710;23.388;2024-03-02T07:46:44;32.78;;;15.55;;
79074;SDS011;68476;42.710;23.388;2024-03-02T07:49:11;29.52;;;15.63;;
79074;SDS011;68476;42.710;23.388;2024-03-02T07:51:38;30.85;;;16.73;;
79074;SDS011;68476;42.710;23.388;2024-03-02T07:54:03;33.50;;;16.27;;
79074;SDS011;68476;42.710;23.388;2024-03-02T07:56:29;35.60;;;16.90;;
79074;SDS011;68476;42.710;23.388;2024-03-02T07:58:55;34.75;;;17.70;;
79074;SDS011;68476;42.710;23.388;2024-03-02T08:01:22;36.10;;;17.27;;
79074;SDS011;68476;42.710;23.388;2024-03-02T08:03:48;31.23;;;15.60;;
79074;SDS011;68476;42.710;23.388;2024-03-02T08:06:15;28.77;;;15.95;;
79074;SDS011;68476;42.710;23.388;2024-03-02T08:08:41;34.08;;;17.90;;
79074;SDS011;68476;42.710;23.388;2024-03-02T08:11:07;32.72;;;17.63;;
79074;SDS011;68476;42.710;23.388;2024-03-02T08:13:32;34.17;;;15.57;;
79074;SDS011;68476;42.710;23.388;2024-03-02T08:15:58;29.08;;;16.13;;
79074;SDS011;68476;42.710;23.388;2024-03-02T08:18:24;35.65;;;17.60;;
79074;SDS011;68476;42.710;23.388;2024-03-02T08:20:49;32.20;;;16.52;;
79074;SDS011;68476;42.710;23.388;2024-03-02T08:23:15;32.03;;;18.27;;
79074;SDS011;68476;42.710;23.388;2024-03-02T08:25:41;27.33;;;14.75;;
79074;SDS011;68476;42.710;23.388;2024-03-02T08:28:07;33.80;;;16.40;;
79074;SDS011;68476;42.710;23.388;2024-03-02T08:30:32;31.67;;;15.52;;
79074;SDS011;68476;42.710;23.388;2024-03-02T08:32:58;31.08;;;16.08;;
79074;SDS011;68476;42.710;23.388;2024-03-02T08:35:23;30.02;;;15.40;;
79074;SDS011;68476;42.710;23.388;2024-03-02T08:37:49;29.83;;;16.15;;
79074;SDS011;68476;42.710;23.388;2024-03-02T08:40:15;29.98;;;16.17;;
79074;SDS011;68476;42.710;23.388;2024-03-02T08:42:40;32.15;;;16.88;;
79074;SDS011;68476;42.710;23.388;2024-03-02T08:45:06;33.17;;;17.83;;
79074;SDS011;68476;42.710;23.388;2024-03-02T08:47:32;31.67;;;16.52;;
79074;SDS011;68476;42.710;23.388;2024-03-02T08:49:59;34.35;;;15.98;;
79074;SDS011;68476;42.710;23.388;2024-03-02T08:52:25;28.10;;;15.60;;
79074;SDS011;68476;42.710;23.388;2024-03-02T08:54:51;31.45;;;16.63;;
79074;SDS011;68476;42.710;23.388;2024-03-02T08:57:17;35.58;;;16.88;;
79074;SDS011;68476;42.710;23.388;2024-03-02T08:59:42;33.40;;;15.57;;
79074;SDS011;68476;42.710;23.388;2024-03-02T09:02:08;30.60;;;16.73;;
79074;SDS011;68476;42.710;23.388;2024-03-02T09:04:34;32.55;;;16.48;;
79074;SDS011;68476;42.710;23.388;2024-03-02T09:07:00;30.85;;;17.02;;
79074;SDS011;68476;42.710;23.388;2024-03-02T09:09:25;31.48;;;16.45;;
79074;SDS011;68476;42.710;23.388;2024-03-02T09:11:51;31.15;;;15.38;;
79074;SDS011;68476;42.710;23.388;2024-03-02T09:14:16;30.05;;;15.23;;
79074;SDS011;68476;42.710;23.388;2024-03-02T09:16:42;30.83;;;15.90;;
79074;SDS011;68476;42.710;23.388;2024-03-02T09:19:07;29.58;;;14.90;;
79074;SDS011;68476;42.710;23.388;2024-03-02T09:21:34;33.78;;;15.70;;
79074;SDS011;68476;42.710;23.388;2024-03-02T09:24:00;31.45;;;16.30;;
79074;SDS011;68476;42.710;23.388;2024-03-02T09:26:27;30.15;;;15.10;;
79074;SDS011;68476;42.710;23.388;2024-03-02T09:28:52;26.27;;;13.65;;
79074;SDS011;68476;42.710;23.388;2024-03-02T09:31:18;27.95;;;14.65;;
79074;SDS011;68476;42.710;23.388;2024-03-02T09:33:43;27.08;;;13.88;;
79074;SDS011;68476;42.710;23.388;2024-03-02T09:36:22;27.38;;;14.52;;
79074;SDS011;68476;42.710;23.388;2024-03-02T09:38:47;26.25;;;14.25;;
79074;SDS011;68476;42.710;23.388;2024-03-02T09:41:14;26.27;;;14.05;;
79074;SDS011;68476;42.710;23.388;2024-03-02T09:43:40;25.15;;;12.32;;
79074;SDS011;68476;42.710;23.388;2024-03-02T09:46:06;25.02;;;14.25;;
79074;SDS011;68476;42.710;23.388;2024-03-02T09:48:34;26.92;;;14.73;;
79074;SDS011;68476;42.710;23.388;2024-03-02T09:51:00;25.88;;;13.55;;
79074;SDS011;68476;42.710;23.388;2024-03-02T09:53:28;27.55;;;13.75;;
79074;SDS011;68476;42.710;23.388;2024-03-02T09:55:57;27.50;;;14.98;;
79074;SDS011;68476;42.710;23.388;2024-03-02T09:58:24;25.13;;;14.70;;
79074;SDS011;68476;42.710;23.388;2024-03-02T10:00:50;28.35;;;14.40;;
79074;SDS011;68476;42.710;23.388;2024-03-02T10:03:15;28.30;;;14.30;;
79074;SDS011;68476;42.710;23.388;2024-03-02T10:05:44;24.90;;;13.68;;
79074;SDS011;68476;42.710;23.388;2024-03-02T10:08:09;22.35;;;13.23;;
79074;SDS011;68476;42.710;23.388;2024-03-02T10:10:35;27.23;;;15.15;;
79074;SDS011;68476;42.710;23.388;2024-03-02T10:13:09;26.83;;;15.98;;
79074;SDS011;68476;42.710;23.388;2024-03-02T10:15:36;28.13;;;14.70;;
79074;SDS011;68476;42.710;23.388;2024-03-02T10:18:02;22.20;;;13.30;;
79074;SDS011;68476;42.710;23.388;2024-03-02T10:20:29;25.92;;;13.60;;
79074;SDS011;68476;42.710;23.388;2024-03-02T10:22:55;24.20;;;13.73;;
79074;SDS011;68476;42.710;23.388;2024-03-02T10:25:33;21.80;;;14.00;;
79074;SDS011;68476;42.710;23.388;2024-03-02T10:27:59;20.73;;;12.65;;
79074;SDS011;68476;42.710;23.388;2024-03-02T10:30:26;22.85;;;12.77;;
79074;SDS011;68476;42.710;23.388;2024-03-02T10:32:52;22.13;;;12.13;;
79074;SDS011;68476;42.710;23.388;2024-03-02T10:35:19;21.27;;;12.95;;
79074;SDS011;68476;42.710;23.388;2024-03-02T10:37:46;23.17;;;12.88;;
79074;SDS011;68476;42.710;23.388;2024-03-02T10:40:12;23.58;;;12.75;;
79074;SDS011;68476;42.710;23.388;2024-03-02T10:42:39;21.73;;;12.55;;
79074;SDS011;68476;42.710;23.388;2024-03-02T10:45:06;21.45;;;12.32;;
79074;SDS011;68476;42.710;23.388;2024-03-02T10:47:36;24.85;;;13.60;;
79074;SDS011;68476;42.710;23.388;2024-03-02T10:50:04;24.05;;;12.95;;
79074;SDS011;68476;42.710;23.388;2024-03-02T10:52:34;21.58;;;12.13;;
79074;SDS011;68476;42.710;23.388;2024-03-02T10:55:00;21.80;;;12.15;;
79074;SDS011;68476;42.710;23.388;2024-03-02T10:57:25;20.65;;;11.80;;
79074;SDS011;68476;42.710;23.388;2024-03-02T10:59:57;20.88;;;11.15;;
79074;SDS011;68476;42.710;23.388;2024-03-02T11:02:28;20.88;;;11.95;;
79074;SDS011;68476;42.710;23.388;2024-03-02T11:04:57;22.30;;;12.05;;
79074;SDS011;68476;42.710;23.388;2024-03-02T11:07:28;22.63;;;12.55;;
79074;SDS011;68476;42.710;23.388;2024-03-02T11:09:54;24.60;;;13.38;;
79074;SDS011;68476;42.710;23.388;2024-03-02T11:15:01;20.38;;;12.18;;
79074;SDS011;68476;42.710;23.388;2024-03-02T11:17:34;26.92;;;12.60;;
79074;SDS011;68476;42.710;23.388;2024-03-02T11:19:59;20.10;;;11.80;;
79074;SDS011;68476;42.710;23.388;2024-03-02T11:22:26;21.25;;;11.68;;
79074;SDS011;68476;42.710;23.388;2024-03-02T11:24:52;22.90;;;12.13;;
79074;SDS011;68476;42.710;23.388;2024-03-02T11:32:57;19.30;;;10.80;;
79074;SDS011;68476;42.710;23.388;2024-03-02T11:35:26;19.42;;;10.68;;
79074;SDS011;68476;42.710;23.388;2024-03-02T11:37:55;18.65;;;11.23;;
79074;SDS011;68476;42.710;23.388;2024-03-02T11:40:27;18.83;;;10.43;;
79074;SDS011;68476;42.710;23.388;2024-03-02T11:42:53;19.10;;;10.52;;
79074;SDS011;68476;42.710;23.388;2024-03-02T11:45:22;19.98;;;10.15;;
79074;SDS011;68476;42.710;23.388;2024-03-02T11:47:53;23.05;;;10.52;;
79074;SDS011;68476;42.710;23.388;2024-03-02T11:50:29;20.95;;;11.27;;
79074;SDS011;68476;42.710;23.388;2024-03-02T11:52:58;21.85;;;10.90;;
79074;SDS011;68476;42.710;23.388;2024-03-02T11:55:25;19.48;;;10.98;;
79074;SDS011;68476;42.710;23.388;2024-03-02T11:57:54;19.95;;;10.30;;
79074;SDS011;68476;42.710;23.388;2024-03-02T12:00:20;19.20;;;10.25;;
79074;SDS011;68476;42.710;23.388;2024-03-02T12:02:46;18.67;;;10.50;;
79074;SDS011;68476;42.710;23.388;2024-03-02T12:05:24;20.25;;;10.50;;
79074;SDS011;68476;42.710;23.388;2024-03-02T12:07:54;16.80;;;10.10;;
79074;SDS011;68476;42.710;23.388;2024-03-02T12:10:24;17.25;;;11.15;;
79074;SDS011;68476;42.710;23.388;2024-03-02T12:12:57;20.52;;;11.05;;
79074;SDS011;68476;42.710;23.388;2024-03-02T12:15:26;18.02;;;9.65;;
79074;SDS011;68476;42.710;23.388;2024-03-02T12:17:56;21.00;;;10.05;;
79074;SDS011;68476;42.710;23.388;2024-03-02T12:20:23;18.23;;;10.25;;
79074;SDS011;68476;42.710;23.388;2024-03-02T12:22:50;14.05;;;8.73;;
79074;SDS011;68476;42.710;23.388;2024-03-02T12:25:17;16.15;;;9.57;;
79074;SDS011;68476;42.710;23.388;2024-03-02T12:27:45;17.63;;;9.80;;
79074;SDS011;68476;42.710;23.388;2024-03-02T12:30:11;18.23;;;10.85;;
79074;SDS011;68476;42.710;23.388;2024-03-02T12:32:38;19.48;;;11.10;;
79074;SDS011;68476;42.710;23.388;2024-03-02T12:35:05;14.07;;;10.00;;
79074;SDS011;68476;42.710;23.388;2024-03-02T12:37:31;16.85;;;10.50;;
79074;SDS011;68476;42.710;23.388;2024-03-02T12:39:56;15.05;;;9.50;;
79074;SDS011;68476;42.710;23.388;2024-03-02T12:42:23;16.15;;;10.23;;
79074;SDS011;68476;42.710;23.388;2024-03-02T12:44:51;14.27;;;9.73;;
79074;SDS011;68476;42.710;23.388;2024-03-02T12:47:20;15.13;;;9.88;;
79074;SDS011;68476;42.710;23.388;2024-03-02T12:49:45;14.27;;;8.68;;
79074;SDS011;68476;42.710;23.388;2024-03-02T12:52:14;16.10;;;9.10;;
79074;SDS011;68476;42.710;23.388;2024-03-02T12:54:39;16.27;;;10.02;;
79074;SDS011;68476;42.710;23.388;2024-03-02T12:57:05;14.95;;;9.45;;
79074;SDS011;68476;42.710;23.388;2024-03-02T12:59:31;15.43;;;9.55;;
79074;SDS011;68476;42.710;23.388;2024-03-02T13:01:56;17.38;;;9.02;;
79074;SDS011;68476;42.710;23.388;2024-03-02T13:04:24;15.00;;;9.57;;
79074;SDS011;68476;42.710;23.388;2024-03-02T13:06:49;19.80;;;10.90;;
79074;SDS011;68476;42.710;23.388;2024-03-02T13:09:16;16.35;;;9.55;;
79074;SDS011;68476;42.710;23.388;2024-03-02T13:11:42;17.40;;;10.63;;
79074;SDS011;68476;42.710;23.388;2024-03-02T13:14:08;14.13;;;8.90;;
79074;SDS011;68476;42.710;23.388;2024-03-02T13:16:38;15.70;;;9.65;;
79074;SDS011;68476;42.710;23.388;2024-03-02T13:19:07;15.32;;;10.02;;
79074;SDS011;68476;42.710;23.388;2024-03-02T13:21:33;15.27;;;9.95;;
79074;SDS011;68476;42.710;23.388;2024-03-02T13:23:58;14.30;;;9.05;;
79074;SDS011;68476;42.710;23.388;2024-03-02T13:26:25;14.05;;;9.05;;
79074;SDS011;68476;42.710;23.388;2024-03-02T13:28:50;14.60;;;9.75;;
79074;SDS011;68476;42.710;23.388;2024-03-02T13:31:16;19.60;;;9.85;;
79074;SDS011;68476;42.710;23.388;2024-03-02T13:33:42;16.88;;;10.27;;
79074;SDS011;68476;42.710;23.388;2024-03-02T13:36:07;14.35;;;9.35;;
79074;SDS011;68476;42.710;23.388;2024-03-02T13:38:33;14.80;;;10.10;;
79074;SDS011;68476;42.710;23.388;2024-03-02T13:40:58;15.48;;;9.20;;
79074;SDS011;68476;42.710;23.388;2024-03-02T13:43:26;14.80;;;10.13;;
79074;SDS011;68476;42.710;23.388;2024-03-02T13:45:52;15.02;;;9.30;;
79074;SDS011;68476;42.710;23.388;2024-03-02T13:48:18;16.77;;;9.65;;
79074;SDS011;68476;42.710;23.388;2024-03-02T13:50:44;13.50;;;9.20;;
79074;SDS011;68476;42.710;23.388;2024-03-02T13:53:11;13.57;;;9.15;;
79074;SDS011;68476;42.710;23.388;2024-03-02T13:55:37;13.68;;;9.60;;
79074;SDS011;68476;42.710;23.388;2024-03-02T13:58:02;14.90;;;9.43;;
79074;SDS011;68476;42.710;23.388;2024-03-02T14:00:28;14.07;;;9.43;;
79074;SDS011;68476;42.710;23.388;2024-03-02T14:02:54;15.40;;;9.13;;
79074;SDS011;68476;42.710;23.388;2024-03-02T14:05:20;17.48;;;9.70;;
79074;SDS011;68476;42.710;23.388;2024-03-02T14:07:46;13.38;;;9.13;;
79074;SDS011;68476;42.710;23.388;2024-03-02T14:10:11;16.77;;;10.07;;
79074;SDS011;68476;42.710;23.388;2024-03-02T14:12:37;16.38;;;9.80;;
79074;SDS011;68476;42.710;23.388;2024-03-02T14:15:03;16.02;;;10.30;;
79074;SDS011;68476;42.710;23.388;2024-03-02T14:17:29;18.58;;;10.55;;
79074;SDS011;68476;42.710;23.388;2024-03-02T14:19:56;22.48;;;11.45;;
79074;SDS011;68476;42.710;23.388;2024-03-02T14:22:23;16.67;;;10.90;;
79074;SDS011;68476;42.710;23.388;2024-03-02T14:24:49;18.55;;;11.02;;